CheckWX is a tool to help pilots better visualize weather data.  It is not intended as a substitute for an official pre-flight weather briefing.

07:09:14 UTC

6R6 METAR
Terrell County Airport
Dryden, Texas, USA
Current

16 mins ago

K6R6 170653Z AUTO 05005KT 23/21 A2986 RMK AO1 SLP072 T02330206
Observed
Jun-17 @ 06:53 UTC
Wind
  • 050° at 5 KTS
Visibility
Temperature
23°C / 73°F
Dewpoint
21°C / 70°F
Humidity
89%
Altimeter
29.86" Hg
Pressure
1011.22 hPa
Previous

1 hour ago

K6R6 170553Z AUTO 03005KT 24/20 A2986 RMK AO1 SLP072 T02390200 10317 20233 403440206 51021
Observed
Jun-17 @ 05:53 UTC
Wind
  • 030° at 5 KTS
Visibility
Temperature
24°C / 75°F
Dewpoint
20°C / 68°F
Humidity
78%
Altimeter
29.86" Hg
Pressure
1011.22 hPa
Previous

2 hours ago

K6R6 170453Z AUTO 03003KT 24/19 A2984 RMK AO1 SLP067 T02390194
Observed
Jun-17 @ 04:53 UTC
Wind
  • 030° at 3 KTS
Visibility
Temperature
24°C / 75°F
Dewpoint
19°C / 66°F
Humidity
74%
Altimeter
29.84" Hg
Pressure
1010.52 hPa